Time;durP1;ratioP1;P1;durP2;ratioP2;P2;SDS_P1;SDS_P2;PMS_P1;PMS_P2;Temp;Humidity;BMP_temperature;BMP_pressure;BME280_temperature;BME280_humidity;BME280_pressure;Samples;Min_cycle;Max_cycle;Signal;HPM_P1;HPM_P2
2023/08/14 00:00:03;;;;;;;9.50;5.90;;;;;;;18.47;91.65;100799.51;84397;281;22724;-70
2023/08/14 00:02:13;;;;;;;11.90;6.80;;;;;;;18.45;91.78;100798.42;84241;282;22723;-69
2023/08/14 00:04:16;;;;;;;7.70;6.10;;;;;;;18.43;91.84;100800.18;84225;282;139366;-69
2023/08/14 00:06:17;;;;;;;13.20;7.50;;;;;;;18.43;92.07;100801.23;84350;281;24107;-70
2023/08/14 00:08:19;;;;;;;7.70;6.70;;;;;;;18.41;92.37;100803.45;84039;282;137550;-70
2023/08/14 00:10:21;;;;;;;7.20;5.90;;;;;;;18.40;92.67;100806.92;84147;282;21557;-70
2023/08/14 00:12:23;;;;;;;7.30;6.40;;;;;;;18.39;93.12;100809.71;83996;279;136814;-69
2023/08/14 00:14:25;;;;;;;7.90;6.50;;;;;;;18.39;93.06;100807.76;84173;281;22567;-71
2023/08/14 00:16:27;;;;;;;9.40;8.00;;;;;;;18.39;93.12;100808.96;84141;281;137158;-72
2023/08/14 00:18:29;;;;;;;10.10;8.30;;;;;;;18.39;93.20;100807.40;84208;282;22563;-71
2023/08/14 00:20:31;;;;;;;13.80;10.40;;;;;;;18.39;93.13;100807.67;83904;284;139025;-69
2023/08/14 00:22:32;;;;;;;12.20;8.70;;;;;;;18.39;92.91;100805.02;84317;282;22662;-70
2023/08/14 00:24:35;;;;;;;8.80;6.60;;;;;;;18.34;93.29;100809.21;84069;282;138788;-70
2023/08/14 00:26:37;;;;;;;10.90;6.70;;;;;;;18.35;93.26;100810.85;84272;282;25244;-69
2023/08/14 00:28:39;;;;;;;9.00;6.40;;;;;;;18.36;93.34;100812.99;84058;283;137971;-70
2023/08/14 00:30:41;;;;;;;9.40;6.60;;;;;;;18.34;93.49;100811.90;84375;282;22612;-70
2023/08/14 00:32:43;;;;;;;12.90;6.30;;;;;;;18.30;93.97;100810.98;84064;272;138626;-70
2023/08/14 00:34:44;;;;;;;8.30;6.10;;;;;;;18.32;94.32;100811.21;84084;284;24134;-68
2023/08/14 00:36:46;;;;;;;11.30;6.20;;;;;;;18.36;94.50;100811.95;84089;282;137164;-69
2023/08/14 00:38:49;;;;;;;14.90;7.90;;;;;;;18.35;94.80;100811.06;84181;282;22632;-69
2023/08/14 00:40:52;;;;;;;8.30;7.30;;;;;;;18.33;95.06;100815.81;84197;282;137319;-70
2023/08/14 00:42:54;;;;;;;8.50;7.00;;;;;;;18.30;95.17;100811.05;84107;283;22548;-68
2023/08/14 00:44:56;;;;;;;11.80;6.30;;;;;;;18.26;95.45;100814.44;84075;282;138116;-70
2023/08/14 00:46:58;;;;;;;8.30;6.00;;;;;;;18.26;95.52;100813.70;84210;282;22942;-66
2023/08/14 00:49:00;;;;;;;9.40;7.70;;;;;;;18.26;95.63;100812.28;84166;281;137151;-67
2023/08/14 00:51:02;;;;;;;9.80;5.90;;;;;;;18.25;95.87;100812.35;84285;283;22579;-66
2023/08/14 00:53:04;;;;;;;8.40;6.70;;;;;;;18.26;96.27;100811.95;84079;283;137062;-68
2023/08/14 00:55:10;;;;;;;6.90;6.30;;;;;;;18.29;96.27;100814.41;84236;284;22880;-68
2023/08/14 00:57:12;;;;;;;6.40;5.60;;;;;;;18.31;96.15;100811.81;84110;284;137152;-67
2023/08/14 00:59:13;;;;;;;6.80;6.10;;;;;;;18.29;95.98;100811.52;84233;282;22548;-69
2023/08/14 01:01:16;;;;;;;9.00;6.40;;;;;;;18.28;95.97;100809.79;84049;284;138175;-69
2023/08/14 01:03:20;;;;;;;5.90;5.40;;;;;;;18.24;96.26;100811.09;84271;284;22550;-70
2023/08/14 01:05:23;;;;;;;7.20;6.10;;;;;;;18.21;96.70;100809.37;84191;282;138629;-69
2023/08/14 01:07:25;;;;;;;6.10;5.60;;;;;;;18.18;97.26;100812.37;84315;281;23705;-70
2023/08/14 01:09:27;;;;;;;7.40;6.10;;;;;;;18.16;97.45;100812.52;84210;282;137144;-70
2023/08/14 01:11:43;;;;;;;6.60;6.00;;;;;;;18.16;97.74;100810.27;84313;283;23783;-71
2023/08/14 01:13:51;;;;;;;8.30;6.00;;;;;;;18.19;97.66;100811.80;84226;282;137124;-70
2023/08/14 01:15:57;;;;;;;9.40;6.40;;;;;;;18.16;97.85;100812.00;84438;281;22548;-71
2023/08/14 01:18:01;;;;;;;6.90;6.00;;;;;;;18.19;97.51;100813.21;84131;285;136595;-69
2023/08/14 01:20:05;;;;;;;9.10;6.60;;;;;;;18.17;97.56;100813.86;84173;283;137581;-65
2023/08/14 01:22:16;;;;;;;6.80;6.20;;;;;;;18.15;97.70;100815.25;84320;281;22547;-69
2023/08/14 01:24:32;;;;;;;7.20;5.70;;;;;;;18.15;97.94;100817.20;84201;282;136140;-69
2023/08/14 01:26:35;;;;;;;7.40;6.40;;;;;;;18.21;98.03;100818.52;84278;282;22537;-70
2023/08/14 01:28:37;;;;;;;7.80;5.80;;;;;;;18.22;97.66;100817.91;84261;282;137348;-69
2023/08/14 01:30:39;;;;;;;7.10;6.30;;;;;;;18.23;97.53;100819.85;84297;284;22555;-71
2023/08/14 01:32:41;;;;;;;11.30;6.20;;;;;;;18.19;97.20;100818.62;84074;282;137077;-69
2023/08/14 01:34:43;;;;;;;9.60;6.70;;;;;;;18.12;97.35;100814.27;84286;282;24212;-70
2023/08/14 01:36:57;;;;;;;7.00;6.00;;;;;;;18.07;97.54;100818.55;84176;284;136952;-69
2023/08/14 01:39:03;;;;;;;9.20;6.50;;;;;;;18.01;98.09;100819.95;84279;283;22717;-69
2023/08/14 01:41:28;;;;;;;8.00;6.10;;;;;;;17.96;98.77;100819.21;84301;282;138519;-71
2023/08/14 01:43:38;;;;;;;6.80;6.30;;;;;;;17.91;99.50;100818.24;84227;282;22552;-69
2023/08/14 01:45:41;;;;;;;8.70;5.90;;;;;;;17.85;100.00;100823.55;84230;284;137528;-66
2023/08/14 01:47:46;;;;;;;6.70;6.20;;;;;;;17.80;100.00;100828.09;84187;283;25141;-73
2023/08/14 01:49:49;;;;;;;7.00;6.20;;;;;;;17.76;100.00;100828.30;84284;281;137288;-70
2023/08/14 01:51:53;;;;;;;7.50;6.70;;;;;;;17.73;100.00;100828.26;84525;281;22550;-73
2023/08/14 01:53:55;;;;;;;;;;;;;;;17.71;100.00;100826.68;84107;288;137646;-67
2023/08/14 01:55:57;;;;;;;8.20;5.80;;;;;;;17.70;100.00;100826.81;84244;283;25270;-70
2023/08/14 01:57:59;;;;;;;8.10;6.00;;;;;;;17.70;100.00;100827.27;84248;282;137134;-68
2023/08/14 02:00:02;;;;;;;8.90;5.90;;;;;;;17.73;100.00;100826.95;84277;284;22637;-72
2023/08/14 02:02:13;;;;;;;8.30;7.20;;;;;;;17.73;100.00;100824.55;84269;282;22770;-70
2023/08/14 02:04:15;;;;;;;9.10;6.60;;;;;;;17.69;100.00;100830.57;84129;282;137503;-71
2023/08/14 02:06:17;;;;;;;7.30;6.30;;;;;;;17.64;100.00;100831.11;84176;282;25398;-68
2023/08/14 02:08:18;;;;;;;10.90;7.40;;;;;;;17.59;100.00;100828.38;84140;282;137335;-69
2023/08/14 02:10:21;;;;;;;6.10;5.50;;;;;;;17.57;100.00;100822.52;84215;283;22810;-71
2023/08/14 02:12:22;;;;;;;6.70;6.00;;;;;;;17.68;100.00;100834.10;84143;282;137672;-68
2023/08/14 02:14:24;;;;;;;7.40;6.10;;;;;;;17.67;100.00;100838.29;84268;281;26374;-69
2023/08/14 02:16:26;;;;;;;8.10;7.00;;;;;;;17.67;100.00;100838.83;84183;282;138775;-69
2023/08/14 02:18:28;;;;;;;6.30;5.70;;;;;;;17.67;100.00;100842.44;84347;282;25270;-68
2023/08/14 02:20:29;;;;;;;6.60;6.00;;;;;;;17.69;100.00;100846.36;84236;282;137473;-71
2023/08/14 02:22:32;;;;;;;6.50;5.80;;;;;;;17.71;100.00;100844.23;84413;281;22659;-72
2023/08/14 02:27:07;;;;;;;6.90;6.30;;;;;;;17.73;100.00;100847.57;82879;304;547454;-69
2023/08/14 02:29:09;;;;;;;9.70;6.00;;;;;;;17.76;100.00;100847.50;83343;295;136557;-68
2023/08/14 02:31:11;;;;;;;7.80;5.90;;;;;;;17.84;100.00;100850.05;83335;296;25116;-70
2023/08/14 02:33:13;;;;;;;5.70;5.00;;;;;;;17.86;100.00;100850.57;83292;296;136381;-68
2023/08/14 02:35:14;;;;;;;7.20;6.60;;;;;;;17.94;100.00;100848.70;83397;297;25229;-69
2023/08/14 02:37:17;;;;;;;6.70;5.90;;;;;;;17.97;100.00;100848.91;83275;285;136402;-70
2023/08/14 02:39:19;;;;;;;5.80;5.10;;;;;;;17.99;100.00;100846.15;83522;285;22518;-70
2023/08/14 02:41:21;;;;;;;6.60;5.80;;;;;;;18.07;100.00;100848.66;83328;295;205748;-69
2023/08/14 02:43:23;;;;;;;6.70;5.90;;;;;;;18.01;100.00;100852.65;83663;295;22754;-69
2023/08/14 02:45:26;;;;;;;9.70;6.20;;;;;;;17.98;100.00;100856.27;83438;295;136814;-69
2023/08/14 02:47:28;;;;;;;10.40;6.00;;;;;;;17.96;100.00;100855.56;83968;296;25353;-69
2023/08/14 02:49:30;;;;;;;6.40;5.80;;;;;;;17.99;100.00;100857.47;83510;295;136793;-68
2023/08/14 02:51:32;;;;;;;5.60;5.20;;;;;;;18.00;100.00;100858.48;83807;288;25249;-70
2023/08/14 02:53:34;;;;;;;7.30;6.10;;;;;;;18.02;100.00;100858.16;83498;296;136770;-71
2023/08/14 02:55:36;;;;;;;7.10;5.90;;;;;;;18.01;100.00;100860.44;83919;290;25381;-71
2023/08/14 02:57:38;;;;;;;7.00;5.50;;;;;;;18.05;100.00;100861.23;83910;288;138400;-71
2023/08/14 02:59:40;;;;;;;7.70;5.30;;;;;;;18.06;100.00;100866.33;84004;288;25262;-71
2023/08/14 03:01:42;;;;;;;8.30;6.10;;;;;;;18.05;100.00;100862.73;83915;288;136713;-66
2023/08/14 03:03:44;;;;;;;6.00;5.30;;;;;;;18.03;100.00;100865.54;84058;288;22568;-68
2023/08/14 03:05:46;;;;;;;6.30;5.60;;;;;;;18.01;100.00;100865.80;83778;289;136334;-70
2023/08/14 03:07:48;;;;;;;9.10;6.40;;;;;;;18.01;100.00;100866.34;83925;290;22611;-70
2023/08/14 03:09:49;;;;;;;6.70;5.90;;;;;;;18.04;100.00;100865.48;83754;289;137012;-68
2023/08/14 03:11:51;;;;;;;6.20;5.60;;;;;;;18.17;100.00;100862.09;83770;290;23877;-68
2023/08/14 03:13:53;;;;;;;7.50;6.00;;;;;;;18.40;100.00;100864.59;84191;288;136649;-72
2023/08/14 03:15:55;;;;;;;6.40;5.80;;;;;;;18.68;100.00;100867.05;83997;288;22571;-69
2023/08/14 03:17:57;;;;;;;8.60;5.40;;;;;;;19.02;99.75;100867.77;83995;288;138017;-69
2023/08/14 03:19:59;;;;;;;8.80;6.20;;;;;;;19.38;98.04;100865.45;84096;288;22966;-68
2023/08/14 03:22:01;;;;;;;7.50;5.90;;;;;;;19.76;95.90;100866.55;83818;290;136148;-68
2023/08/14 03:24:03;;;;;;;5.20;4.70;;;;;;;20.13;93.06;100868.33;83793;288;22556;-69
2023/08/14 03:26:08;;;;;;;9.40;6.10;;;;;;;20.58;89.79;100867.17;83849;290;22641;-71
2023/08/14 03:28:10;;;;;;;6.30;5.70;;;;;;;21.10;86.80;100870.67;83843;288;135410;-70
2023/08/14 03:30:12;;;;;;;8.30;5.30;;;;;;;21.53;82.70;100859.32;83935;288;22576;-72
2023/08/14 03:32:15;;;;;;;5.80;5.20;;;;;;;22.03;79.76;100863.77;84003;288;135851;-70
2023/08/14 03:34:18;;;;;;;8.00;5.70;;;;;;;22.49;76.99;100869.77;83872;288;22610;-67
2023/08/14 03:36:21;;;;;;;8.30;5.30;;;;;;;22.84;74.97;100869.70;84034;288;136281;-71
2023/08/14 03:38:23;;;;;;;7.10;5.70;;;;;;;23.15;72.59;100873.81;83810;290;22577;-69
2023/08/14 03:40:25;;;;;;;8.20;5.30;;;;;;;23.52;70.68;100871.86;83796;288;136142;-70
2023/08/14 03:42:27;;;;;;;5.70;5.20;;;;;;;23.90;69.01;100875.42;83860;290;24156;-68
2023/08/14 03:44:31;;;;;;;7.30;5.20;;;;;;;24.21;66.83;100869.54;84044;286;135947;-69
2023/08/14 03:46:33;;;;;;;7.80;5.50;;;;;;;24.56;65.47;100870.30;84139;287;22552;-65
2023/08/14 03:48:37;;;;;;;7.90;5.40;;;;;;;24.87;64.04;100871.80;84012;286;137022;-67
2023/08/14 03:50:38;;;;;;;9.80;5.20;;;;;;;25.16;62.95;100874.35;84354;287;24118;-68
2023/08/14 03:52:41;;;;;;;6.50;5.20;;;;;;;25.48;61.85;100874.10;83869;287;136615;-72
2023/08/14 03:54:43;;;;;;;6.80;5.10;;;;;;;25.79;60.08;100871.96;83994;287;22524;-66
2023/08/14 03:56:45;;;;;;;5.20;4.60;;;;;;;26.09;58.42;100871.68;84052;286;136019;-69
2023/08/14 03:58:47;;;;;;;5.80;4.30;;;;;;;26.37;56.74;100874.29;84148;287;22571;-66
2023/08/14 04:00:50;;;;;;;7.10;5.10;;;;;;;26.64;55.55;100870.54;83799;275;136597;-66
2023/08/14 04:02:52;;;;;;;9.10;4.60;;;;;;;26.87;54.61;100873.73;83744;287;22553;-68
2023/08/14 04:04:54;;;;;;;5.40;4.90;;;;;;;27.10;54.10;100867.98;83744;287;135439;-67
2023/08/14 04:06:57;;;;;;;6.80;5.00;;;;;;;27.33;53.46;100870.00;83895;286;22550;-68
2023/08/14 04:09:01;;;;;;;8.30;5.00;;;;;;;27.53;51.95;100866.56;83787;286;137084;-66
2023/08/14 04:11:04;;;;;;;11.20;5.50;;;;;;;27.73;50.69;100868.28;86629;287;22513;-68
2023/08/14 04:13:06;;;;;;;7.10;5.10;;;;;;;27.98;49.52;100868.06;86460;287;136757;-67
2023/08/14 04:15:16;;;;;;;5.80;4.30;;;;;;;28.21;48.69;100867.52;85463;286;22768;-68
2023/08/14 04:17:17;;;;;;;7.50;4.30;;;;;;;28.45;48.10;100869.66;86609;286;136865;-68
2023/08/14 04:19:20;;;;;;;9.00;4.80;;;;;;;28.70;47.15;100868.28;86723;286;22255;-69
2023/08/14 04:21:22;;;;;;;12.20;4.80;;;;;;;28.93;46.55;100868.85;86721;284;137314;-67
2023/08/14 04:23:25;;;;;;;9.70;5.00;;;;;;;29.14;45.87;100873.70;85278;283;22559;-70
2023/08/14 04:25:28;;;;;;;5.60;4.50;;;;;;;29.31;45.42;100874.52;84020;284;136103;-67
2023/08/14 04:27:31;;;;;;;6.00;5.10;;;;;;;29.47;44.89;100875.15;84080;283;25203;-69
2023/08/14 04:29:33;;;;;;;5.40;4.40;;;;;;;29.63;44.24;100877.27;84044;283;136181;-64
2023/08/14 04:31:36;;;;;;;6.70;4.30;;;;;;;29.74;43.59;100878.13;84203;283;22545;-67
2023/08/14 04:33:38;;;;;;;5.70;4.30;;;;;;;29.87;43.25;100873.54;84291;285;137013;-72
2023/08/14 04:35:40;;;;;;;7.80;4.30;;;;;;;30.01;42.39;100875.90;84037;284;22552;-73
2023/08/14 04:37:42;;;;;;;8.80;4.30;;;;;;;30.08;41.96;100875.59;85015;284;137133;-68
2023/08/14 04:39:44;;;;;;;6.80;3.60;;;;;;;30.15;41.68;100879.02;84070;284;22558;-69
2023/08/14 04:41:46;;;;;;;4.40;3.20;;;;;;;30.27;41.49;100879.09;83934;284;135940;-67
2023/08/14 04:43:49;;;;;;;5.00;3.10;;;;;;;30.44;41.07;100880.02;83955;285;22624;-67
2023/08/14 04:45:51;;;;;;;5.70;3.70;;;;;;;30.66;41.00;100876.88;84221;281;137013;-68
2023/08/14 04:47:53;;;;;;;6.40;4.00;;;;;;;30.94;39.98;100876.66;84060;286;25208;-68
2023/08/14 04:49:59;;;;;;;6.00;4.60;;;;;;;31.21;39.34;100873.74;83972;284;135793;-70
2023/08/14 04:52:00;;;;;;;6.50;5.80;;;;;;;31.42;39.04;100873.98;84070;284;22571;-68
2023/08/14 04:54:03;;;;;;;9.90;4.50;;;;;;;31.60;38.72;100872.25;83996;284;22586;-67
2023/08/14 04:56:06;;;;;;;9.80;6.50;;;;;;;31.75;37.83;100875.58;83899;284;136204;-68
2023/08/14 04:58:07;;;;;;;7.30;6.70;;;;;;;31.90;37.45;100876.16;84161;284;22596;-69
2023/08/14 05:00:11;;;;;;;8.70;6.90;;;;;;;32.07;37.22;100881.25;83893;284;137796;-69
2023/08/14 05:02:13;;;;;;;9.30;4.30;;;;;;;32.20;37.12;100883.31;84082;285;22638;-69
2023/08/14 05:04:15;;;;;;;10.00;6.30;;;;;;;32.27;36.63;100885.85;83969;284;136362;-67
2023/08/14 05:06:17;;;;;;;7.40;6.40;;;;;;;32.33;36.10;100886.58;84142;284;25220;-68
2023/08/14 05:08:21;;;;;;;6.30;5.70;;;;;;;32.41;35.96;100887.20;84126;284;137446;-67
2023/08/14 05:10:23;;;;;;;8.60;5.20;;;;;;;32.51;35.64;100883.96;84087;285;22817;-70
2023/08/14 05:12:25;;;;;;;8.70;5.80;;;;;;;32.57;35.39;100887.16;84089;284;136179;-68
2023/08/14 05:14:27;;;;;;;5.50;4.60;;;;;;;32.64;35.40;100883.94;84104;284;22605;-66
2023/08/14 05:16:30;;;;;;;7.10;3.50;;;;;;;32.68;35.33;100887.70;83979;284;136514;-73
2023/08/14 05:18:32;;;;;;;5.80;3.50;;;;;;;32.72;35.25;100888.31;84115;284;22606;-71
2023/08/14 05:20:34;;;;;;;7.30;3.30;;;;;;;32.74;35.02;100887.41;84158;283;136572;-68
2023/08/14 05:22:36;;;;;;;5.90;3.60;;;;;;;32.72;34.77;100892.53;84278;283;22551;-67
2023/08/14 05:24:38;;;;;;;4.30;2.70;;;;;;;32.69;34.88;100888.98;83921;285;136000;-67
2023/08/14 05:26:40;;;;;;;2.60;2.40;;;;;;;32.65;35.15;100891.36;84061;272;23723;-66
2023/08/14 05:28:42;;;;;;;11.20;3.30;;;;;;;32.48;34.80;100878.71;83934;284;136150;-70
2023/08/14 05:30:45;;;;;;;8.20;2.80;;;;;;;32.43;34.70;100893.33;84147;282;23795;-69
2023/08/14 05:32:47;;;;;;;2.50;2.10;;;;;;;32.36;34.71;100894.39;84007;283;136349;-68
2023/08/14 05:34:49;;;;;;;2.60;1.80;;;;;;;32.26;34.62;100896.19;84143;284;24228;-69
2023/08/14 05:36:50;;;;;;;3.90;2.20;;;;;;;32.10;34.75;100897.05;84151;283;137607;-67
2023/08/14 05:38:52;;;;;;;4.80;2.60;;;;;;;31.84;34.93;100889.83;84009;284;26873;-70
2023/08/14 05:40:56;;;;;;;;;;;;;;;31.65;35.30;100896.66;83956;284;136335;-65
2023/08/14 05:43:09;;;;;;;6.90;3.30;;;;;;;31.43;35.58;100897.70;84102;284;25138;-70
2023/08/14 05:45:11;;;;;;;4.10;2.50;;;;;;;31.31;36.10;100895.70;84045;284;135808;-68
2023/08/14 05:47:13;;;;;;;3.60;3.40;;;;;;;31.31;36.77;100896.48;83974;284;23605;-68
2023/08/14 05:49:15;;;;;;;3.20;1.80;;;;;;;31.37;37.14;100901.21;83938;274;136066;-72
2023/08/14 05:51:17;;;;;;;3.60;3.30;;;;;;;31.33;35.89;100896.69;84073;283;25177;-72
2023/08/14 05:53:19;;;;;;;5.50;2.50;;;;;;;31.11;36.56;100896.58;84014;283;137228;-69
2023/08/14 05:55:23;;;;;;;3.40;2.80;;;;;;;30.89;37.36;100898.63;84283;284;24113;-65
2023/08/14 05:57:25;;;;;;;2.80;2.30;;;;;;;30.80;37.15;100898.23;84227;284;136358;-70
2023/08/14 05:59:27;;;;;;;3.40;1.80;;;;;;;30.61;37.01;100901.36;84262;284;23039;-67
2023/08/14 06:01:29;;;;;;;2.90;2.70;;;;;;;30.42;37.45;100906.89;83991;283;136279;-70
2023/08/14 06:03:31;;;;;;;4.50;2.20;;;;;;;30.27;38.12;100906.55;84163;283;24333;-72
2023/08/14 06:05:51;;;;;;;4.40;3.80;;;;;;;30.21;37.65;100907.70;83963;285;136599;-70
2023/08/14 06:07:54;;;;;;;3.20;3.00;;;;;;;30.25;37.86;100901.51;84109;283;23940;-68
2023/08/14 06:09:56;;;;;;;3.20;2.90;;;;;;;30.39;38.02;100909.30;84140;283;136567;-71
2023/08/14 06:11:58;;;;;;;4.80;4.40;;;;;;;30.53;37.75;100910.80;84161;283;25359;-69
2023/08/14 06:13:59;;;;;;;5.10;4.60;;;;;;;30.55;37.50;100915.52;83999;285;136074;-71
2023/08/14 06:16:02;;;;;;;3.70;2.50;;;;;;;30.51;37.83;100917.06;84143;285;22546;-64
2023/08/14 06:18:04;;;;;;;5.10;4.20;;;;;;;30.47;38.36;100918.55;84132;285;24151;-63
2023/08/14 06:20:07;;;;;;;6.50;1.90;;;;;;;30.53;38.06;100920.58;84095;285;135696;-65
2023/08/14 06:22:09;;;;;;;2.10;2.00;;;;;;;30.61;38.06;100923.80;84113;284;22573;-64
2023/08/14 06:24:13;;;;;;;4.30;2.20;;;;;;;30.69;37.83;100915.98;83958;284;136972;-64
2023/08/14 06:26:16;;;;;;;6.30;2.20;;;;;;;30.90;37.41;100921.02;84144;283;23870;-64
2023/08/14 06:28:18;;;;;;;6.50;2.80;;;;;;;30.95;37.47;100922.40;83922;274;136841;-63
2023/08/14 06:30:21;;;;;;;4.90;2.20;;;;;;;30.95;37.53;100920.52;84047;284;24226;-64
2023/08/14 06:32:22;;;;;;;3.90;2.40;;;;;;;31.03;37.64;100918.69;84082;272;136623;-62
2023/08/14 06:34:26;;;;;;;2.60;2.20;;;;;;;31.09;36.80;100919.30;84133;284;22652;-63
2023/08/14 06:36:28;;;;;;;3.50;1.60;;;;;;;30.91;36.72;100923.30;84033;283;136304;-65
2023/08/14 06:38:30;;;;;;;5.10;3.10;;;;;;;30.66;37.05;100926.11;84151;284;22576;-64
2023/08/14 06:40:32;;;;;;;2.90;2.00;;;;;;;30.42;38.12;100927.25;84058;284;136422;-63
2023/08/14 06:42:34;;;;;;;4.70;2.70;;;;;;;30.35;37.94;100925.64;84112;285;22680;-67
2023/08/14 06:44:36;;;;;;;3.70;1.50;;;;;;;30.35;37.62;100928.65;84181;284;136670;-65
2023/08/14 06:46:40;;;;;;;3.40;2.30;;;;;;;30.29;37.87;100932.01;84148;283;22580;-64
2023/08/14 06:48:42;;;;;;;3.50;1.50;;;;;;;30.28;38.34;100932.23;84002;283;136682;-63
2023/08/14 06:50:44;;;;;;;14.70;8.80;;;;;;;30.40;37.37;100937.96;84120;284;22884;-59
2023/08/14 06:52:47;;;;;;;7.60;5.30;;;;;;;30.46;37.28;100937.52;83919;285;137747;-63
2023/08/14 06:54:49;;;;;;;7.10;2.90;;;;;;;30.45;36.74;100936.36;84106;284;22564;-63
2023/08/14 06:56:51;;;;;;;3.60;1.10;;;;;;;30.39;36.60;100934.73;83948;284;136527;-64
2023/08/14 06:58:53;;;;;;;3.00;1.40;;;;;;;30.28;37.32;100933.63;84086;284;25242;-63
2023/08/14 07:00:55;;;;;;;1.70;1.40;;;;;;;30.24;36.76;100936.90;83962;284;136603;-63
2023/08/14 07:02:58;;;;;;;1.30;0.90;;;;;;;30.18;37.15;100934.80;84146;285;23711;-63
2023/08/14 07:05:02;;;;;;;4.30;1.80;;;;;;;30.05;37.39;100938.16;83965;285;137524;-61
2023/08/14 07:07:04;;;;;;;3.00;1.60;;;;;;;29.97;37.41;100936.83;84107;284;22582;-65
2023/08/14 07:09:07;;;;;;;1.90;1.50;;;;;;;29.92;37.89;100940.46;83926;285;136518;-64
2023/08/14 07:11:09;;;;;;;4.10;2.00;;;;;;;29.93;37.75;100940.98;84152;285;22938;-66
2023/08/14 07:13:11;;;;;;;4.50;1.90;;;;;;;29.99;37.46;100942.89;84074;284;137153;-63
2023/08/14 07:15:12;;;;;;;4.50;1.10;;;;;;;30.04;37.18;100938.17;84059;284;22722;-64
2023/08/14 07:17:15;;;;;;;5.70;2.80;;;;;;;30.00;37.63;100928.40;83954;284;136316;-65
2023/08/14 07:19:17;;;;;;;2.60;2.10;;;;;;;30.03;37.50;100933.96;84212;283;24235;-66
2023/08/14 07:21:19;;;;;;;6.40;5.80;;;;;;;30.06;37.35;100942.27;84135;284;136235;-64
2023/08/14 07:23:21;;;;;;;3.70;3.40;;;;;;;30.03;37.28;100946.11;84066;285;22553;-61
2023/08/14 07:25:24;;;;;;;6.40;3.70;;;;;;;29.98;37.00;100946.48;84004;284;136302;-64
2023/08/14 07:27:27;;;;;;;1.40;1.30;;;;;;;29.84;36.99;100941.09;84060;284;25227;-62
2023/08/14 07:29:30;;;;;;;1.30;1.10;;;;;;;29.64;37.28;100941.97;84168;284;136556;-64
2023/08/14 07:31:37;;;;;;;8.70;2.00;;;;;;;29.39;37.54;100941.41;84225;272;22548;-63
2023/08/14 07:33:38;;;;;;;2.40;1.00;;;;;;;29.13;37.98;100943.63;84028;284;136437;-64
2023/08/14 07:35:41;;;;;;;5.60;1.70;;;;;;;28.97;38.87;100941.06;84113;283;22574;-63
2023/08/14 07:37:43;;;;;;;4.30;1.50;;;;;;;28.90;38.80;100940.68;84092;284;136480;-62
2023/08/14 07:39:47;;;;;;;1.40;1.20;;;;;;;28.84;39.15;100939.52;84109;284;24241;-63
2023/08/14 07:41:51;;;;;;;3.80;1.20;;;;;;;28.76;39.20;100939.52;84345;284;135815;-62
2023/08/14 07:43:54;;;;;;;4.40;1.00;;;;;;;28.66;39.29;100939.43;84234;284;22563;-63
2023/08/14 07:45:56;;;;;;;2.40;1.50;;;;;;;28.59;40.06;100942.98;83934;274;137788;-66
2023/08/14 07:47:59;;;;;;;3.70;1.40;;;;;;;28.56;39.76;100941.70;84162;283;25275;-65
2023/08/14 07:50:02;;;;;;;2.80;1.00;;;;;;;28.53;39.44;100939.92;84196;284;136780;-63
2023/08/14 07:52:05;;;;;;;4.10;1.30;;;;;;;28.51;39.99;100941.02;84194;273;136769;-66
2023/08/14 07:54:07;;;;;;;3.60;1.50;;;;;;;28.53;40.32;100936.14;84060;284;23753;-64
2023/08/14 07:56:09;;;;;;;5.00;1.70;;;;;;;28.58;39.77;100938.17;83979;285;137580;-63
2023/08/14 07:58:11;;;;;;;7.60;2.00;;;;;;;28.59;39.53;100939.02;84051;283;24100;-65
2023/08/14 08:00:13;;;;;;;1.90;1.20;;;;;;;28.62;39.73;100939.66;84014;284;136807;-65
2023/08/14 08:02:16;;;;;;;5.60;1.00;;;;;;;28.64;39.57;100939.85;84128;284;25158;-62
2023/08/14 08:04:18;;;;;;;4.40;3.60;;;;;;;28.64;39.81;100943.15;84157;284;136441;-63
2023/08/14 08:06:23;;;;;;;3.40;1.70;;;;;;;28.65;39.34;100939.72;84123;284;22565;-61
2023/08/14 08:08:25;;;;;;;2.60;2.40;;;;;;;28.67;39.22;100942.38;84086;285;136606;-61
2023/08/14 08:10:27;;;;;;;5.10;2.50;;;;;;;28.66;38.73;100941.34;84170;284;23867;-64
2023/08/14 08:12:29;;;;;;;4.10;1.70;;;;;;;28.66;38.60;100939.97;84562;283;136667;-67
2023/08/14 08:14:33;;;;;;;3.00;0.80;;;;;;;28.63;38.56;100941.67;84163;284;22569;-62
2023/08/14 08:16:36;;;;;;;1.60;1.30;;;;;;;28.60;38.70;100940.16;84152;284;136283;-65
2023/08/14 08:18:38;;;;;;;1.80;0.90;;;;;;;28.57;39.00;100937.80;84202;284;22559;-65
2023/08/14 08:20:40;;;;;;;1.40;1.10;;;;;;;28.58;39.21;100936.80;83962;285;136984;-65
2023/08/14 08:22:41;;;;;;;1.70;1.10;;;;;;;28.57;39.28;100937.64;84120;284;22568;-64
2023/08/14 08:24:44;;;;;;;3.50;0.90;;;;;;;28.59;38.83;100938.21;84111;282;136541;-66
2023/08/14 08:26:46;;;;;;;5.10;0.50;;;;;;;28.62;38.87;100934.27;84139;283;22550;-68
2023/08/14 08:28:48;;;;;;;0.80;0.60;;;;;;;28.70;38.61;100937.96;84045;284;136912;-64
2023/08/14 08:30:50;;;;;;;1.20;0.80;;;;;;;28.77;38.67;100938.17;84026;284;22553;-61
2023/08/14 08:32:53;;;;;;;1.60;0.30;;;;;;;28.80;38.92;100936.38;84015;284;137680;-62
2023/08/14 08:35:04;;;;;;;3.90;1.00;;;;;;;28.75;38.91;100928.11;84030;284;22551;-63
2023/08/14 08:37:06;;;;;;;4.40;0.70;;;;;;;28.84;38.47;100936.98;83997;283;136531;-65
2023/08/14 08:39:08;;;;;;;1.20;0.60;;;;;;;28.86;38.33;100940.30;84252;283;22546;-65
2023/08/14 08:41:12;;;;;;;3.60;0.90;;;;;;;28.85;38.77;100944.09;83913;284;136551;-68
2023/08/14 08:43:15;;;;;;;4.50;1.40;;;;;;;28.86;38.51;100941.08;84062;283;22698;-64
2023/08/14 08:45:19;;;;;;;1.20;0.70;;;;;;;28.85;38.47;100940.64;83966;284;136374;-63
2023/08/14 08:47:28;;;;;;;1.30;0.70;;;;;;;28.86;38.34;100942.00;84252;284;22662;-64
2023/08/14 08:49:30;;;;;;;1.90;1.30;;;;;;;28.88;38.29;100941.59;84110;283;137388;-65
2023/08/14 08:51:34;;;;;;;1.40;0.70;;;;;;;28.87;38.02;100940.55;84225;284;25227;-65
2023/08/14 08:53:37;;;;;;;1.50;0.60;;;;;;;28.87;38.24;100944.28;84078;284;138031;-62
2023/08/14 08:55:39;;;;;;;2.20;1.20;;;;;;;28.86;38.51;100943.11;84396;284;24264;-61
2023/08/14 08:57:42;;;;;;;4.20;0.50;;;;;;;28.86;38.80;100941.79;84011;284;136345;-63
2023/08/14 08:59:44;;;;;;;4.40;1.10;;;;;;;28.89;38.49;100946.30;84054;284;22670;-64
2023/08/14 09:01:46;;;;;;;3.30;0.70;;;;;;;28.92;38.43;100948.51;84018;283;136392;-64
2023/08/14 09:03:48;;;;;;;2.90;0.80;;;;;;;28.92;37.87;100947.83;84200;284;22675;-63
2023/08/14 09:05:51;;;;;;;2.30;0.50;;;;;;;28.90;37.85;100948.30;84181;284;137831;-64
2023/08/14 09:07:53;;;;;;;1.80;0.30;;;;;;;28.88;37.88;100945.86;84250;284;22588;-64
2023/08/14 09:09:55;;;;;;;1.50;0.60;;;;;;;28.88;37.73;100940.20;84072;284;136100;-62
2023/08/14 09:11:57;;;;;;;6.00;0.50;;;;;;;28.82;37.84;100930.38;84172;284;24117;-63
2023/08/14 09:13:59;;;;;;;1.70;0.60;;;;;;;28.87;37.91;100934.30;84027;285;136144;-63
2023/08/14 09:16:01;;;;;;;0.60;0.40;;;;;;;28.87;37.48;100940.23;84279;284;22660;-65
2023/08/14 09:18:03;;;;;;;3.40;0.60;;;;;;;28.85;37.31;100939.49;83913;284;136344;-63
2023/08/14 09:20:08;;;;;;;3.60;0.40;;;;;;;28.81;37.46;100939.11;83901;283;136812;-62
2023/08/14 09:22:28;;;;;;;2.30;0.70;;;;;;;28.83;37.88;100938.48;84111;284;22576;-62
2023/08/14 09:24:34;;;;;;;0.50;0.40;;;;;;;28.89;37.48;100936.48;84121;283;136497;-65
2023/08/14 09:26:36;;;;;;;1.90;0.50;;;;;;;28.96;37.41;100933.40;84197;284;25254;-63
2023/08/14 09:28:39;;;;;;;0.40;0.30;;;;;;;29.02;37.34;100927.59;84027;284;136087;-63
2023/08/14 09:30:41;;;;;;;3.70;0.50;;;;;;;29.09;37.30;100929.57;84082;284;22669;-61
2023/08/14 09:32:44;;;;;;;2.10;0.70;;;;;;;29.10;36.85;100916.25;84018;284;136618;-63
2023/08/14 09:34:46;;;;;;;2.30;0.40;;;;;;;29.20;36.90;100928.29;84104;284;22554;-63